Time;durP1;ratioP1;P1;durP2;ratioP2;P2;SDS_P1;SDS_P2;PMS_P1;PMS_P2;Temp;Humidity;BMP_temperature;BMP_pressure;BME280_temperature;BME280_humidity;BME280_pressure;Samples;Min_cycle;Max_cycle;Signal;HPM_P1;HPM_P2
2022/05/23 00:01:24;;;;;;;;;;;18.70;88.40;;;;;;5079563;28;19928;-74
2022/05/23 00:03:51;;;;;;;;;;;18.70;88.40;;;;;;5075221;28;19924;-74
2022/05/23 00:06:19;;;;;;;;;;;18.60;88.40;;;;;;5073611;28;19967;-74
2022/05/23 00:08:46;;;;;;;;;;;18.60;88.40;;;;;;5073688;28;19939;-74
2022/05/23 00:11:13;;;;;;;;;;;18.60;88.40;;;;;;5079701;28;19925;-74
2022/05/23 00:13:40;;;;;;;;;;;18.50;88.40;;;;;;5074910;28;20378;-74
2022/05/23 00:16:08;;;;;;;;;;;18.50;88.40;;;;;;5085334;27;20135;-75
2022/05/23 00:18:36;;;;;;;;;;;18.50;88.40;;;;;;5071367;28;19935;-74
2022/05/23 00:21:03;;;;;;;;;;;18.50;88.50;;;;;;5070260;28;19939;-74
2022/05/23 00:23:30;;;;;;;;;;;18.50;88.60;;;;;;5073543;28;19932;-75
2022/05/23 00:25:59;;;;;;;;;;;18.40;88.50;;;;;;5074846;28;19925;-74
2022/05/23 00:28:26;;;;;;;;;;;18.40;88.70;;;;;;5074392;28;19924;-75
2022/05/23 00:30:53;;;;;;;;;;;18.40;88.70;;;;;;5071518;28;20406;-75
2022/05/23 00:36:06;;;;;;;;;;;18.30;88.70;;;;;;5087665;28;19965;-75
2022/05/23 00:38:33;;;;;;;;;;;18.30;88.80;;;;;;5089629;27;19926;-75
2022/05/23 00:43:42;;;;;;;;;;;18.30;88.80;;;;;;5074887;28;20443;-74
2022/05/23 00:46:11;;;;;;;;;;;18.30;88.70;;;;;;5068873;28;19924;-75
2022/05/23 00:48:38;;;;;;;;;;;18.20;88.70;;;;;;5070899;28;19931;-75
2022/05/23 00:51:09;;;;;;;;;;;18.20;88.70;;;;;;5072187;28;19964;-74
2022/05/23 00:53:38;;;;;;;;;;;18.10;88.70;;;;;;5074888;28;19934;-73
2022/05/23 00:56:06;;;;;;;;;;;18.10;88.70;;;;;;5065714;28;20405;-75
2022/05/23 00:58:36;;;;;;;;;;;18.10;88.70;;;;;;5068444;28;20514;-73
2022/05/23 01:01:06;;;;;;;;;;;18.10;88.70;;;;;;5072040;28;19933;-73
2022/05/23 01:03:33;;;;;;;;;;;18.10;88.70;;;;;;5073417;28;19951;-74
2022/05/23 01:06:00;;;;;;;;;;;18.10;88.70;;;;;;5068926;28;19932;-75
2022/05/23 01:08:29;;;;;;;;;;;18.00;88.70;;;;;;5077905;28;19947;-74
2022/05/23 01:10:56;;;;;;;;;;;18.00;88.80;;;;;;5077834;28;19924;-73
2022/05/23 01:13:23;;;;;;;;;;;18.00;88.90;;;;;;5072123;28;19924;-73
2022/05/23 01:15:51;;;;;;;;;;;17.90;88.90;;;;;;5071307;28;19924;-74
2022/05/23 01:18:19;;;;;;;;;;;17.90;88.80;;;;;;5069803;28;20923;-74
2022/05/23 01:20:46;;;;;;;;;;;17.90;88.90;;;;;;5085741;28;19952;-75
2022/05/23 01:23:17;;;;;;;;;;;17.90;88.90;;;;;;5069410;28;19928;-75
2022/05/23 01:26:07;;;;;;;;;;;17.90;88.90;;;;;;5072447;28;20624;-74
2022/05/23 01:28:55;;;;;;;;;;;17.80;88.90;;;;;;5069992;28;19932;-75
2022/05/23 01:31:40;;;;;;;;;;;17.80;88.90;;;;;;5070813;28;20302;-74
2022/05/23 01:34:28;;;;;;;;;;;17.80;89.00;;;;;;5072437;28;19933;-75
2022/05/23 01:37:01;;;;;;;;;;;17.80;89.00;;;;;;5073069;28;19932;-75
2022/05/23 01:39:34;;;;;;;;;;;17.80;89.00;;;;;;5088285;27;20367;-74
2022/05/23 01:42:03;;;;;;;;;;;17.80;89.10;;;;;;5087190;28;20424;-73
2022/05/23 01:44:32;;;;;;;;;;;17.70;89.10;;;;;;5088325;28;20015;-73
2022/05/23 01:47:20;;;;;;;;;;;17.70;89.00;;;;;;5091682;28;19933;-75
2022/05/23 01:49:57;;;;;;;;;;;17.70;89.00;;;;;;5075108;28;19928;-74
2022/05/23 01:52:47;;;;;;;;;;;17.70;89.10;;;;;;5069844;28;19951;-74
2022/05/23 01:55:20;;;;;;;;;;;17.60;89.10;;;;;;5066806;28;19925;-75
2022/05/23 01:58:08;;;;;;;;;;;17.60;89.10;;;;;;5069476;28;19978;-74
2022/05/23 02:03:24;;;;;;;;;;;17.60;89.10;;;;;;5078303;28;19925;-75
2022/05/23 02:05:55;;;;;;;;;;;17.50;89.00;;;;;;5075727;28;20348;-75
2022/05/23 02:08:22;;;;;;;;;;;17.50;89.10;;;;;;5076008;28;19967;-74
2022/05/23 02:10:50;;;;;;;;;;;17.50;89.10;;;;;;5076041;28;20500;-75
2022/05/23 02:13:25;;;;;;;;;;;17.50;89.20;;;;;;5068540;28;19939;-75
2022/05/23 02:15:53;;;;;;;;;;;17.40;89.10;;;;;;5068721;28;20424;-74
2022/05/23 02:18:38;;;;;;;;;;;17.40;89.10;;;;;;5073894;28;19931;-74
2022/05/23 02:21:06;;;;;;;;;;;17.40;89.20;;;;;;5072136;28;19939;-75
2022/05/23 02:23:34;;;;;;;;;;;17.40;89.20;;;;;;5078364;28;19931;-74
2022/05/23 02:26:01;;;;;;;;;;;17.40;89.20;;;;;;5076681;28;19932;-73
2022/05/23 02:28:48;;;;;;;;;;;17.40;89.30;;;;;;5069048;28;19946;-73
2022/05/23 02:31:26;;;;;;;;;;;17.30;89.30;;;;;;5077234;28;19935;-75
2022/05/23 02:33:58;;;;;;;;;;;17.30;89.30;;;;;;5079062;28;19924;-75
2022/05/23 02:36:41;;;;;;;;;;;17.30;89.30;;;;;;5077444;28;20023;-74
2022/05/23 02:39:09;;;;;;;;;;;17.30;89.30;;;;;;5080653;28;19924;-73
2022/05/23 02:41:36;;;;;;;;;;;17.20;89.20;;;;;;5072056;28;20411;-75
2022/05/23 02:44:07;;;;;;;;;;;17.20;89.40;;;;;;5070145;28;19928;-75
2022/05/23 02:46:34;;;;;;;;;;;17.20;89.30;;;;;;5072074;28;19964;-74
2022/05/23 02:49:06;;;;;;;;;;;17.20;89.30;;;;;;5074750;28;20397;-75
2022/05/23 02:51:34;;;;;;;;;;;17.10;89.20;;;;;;5077395;28;20412;-74
2022/05/23 02:54:05;;;;;;;;;;;17.10;89.20;;;;;;5079867;28;19956;-75
2022/05/23 02:56:35;;;;;;;;;;;17.10;89.30;;;;;;5072310;28;19935;-75
2022/05/23 02:59:03;;;;;;;;;;;17.10;89.30;;;;;;5070688;28;20208;-75
2022/05/23 03:01:31;;;;;;;;;;;17.10;89.30;;;;;;5081843;28;19939;-74
2022/05/23 03:03:58;;;;;;;;;;;17.00;89.30;;;;;;5080417;28;20287;-74
2022/05/23 03:06:25;;;;;;;;;;;17.00;89.30;;;;;;5078349;28;19956;-74
2022/05/23 03:08:52;;;;;;;;;;;17.00;89.30;;;;;;5069788;28;20608;-74
2022/05/23 03:11:19;;;;;;;;;;;17.00;89.40;;;;;;5080786;28;19928;-75
2022/05/23 03:13:46;;;;;;;;;;;17.00;89.40;;;;;;5067931;28;19925;-74
2022/05/23 03:16:15;;;;;;;;;;;16.90;89.30;;;;;;5091463;28;20148;-75
2022/05/23 03:18:45;;;;;;;;;;;16.90;89.40;;;;;;5072560;28;19936;-74
2022/05/23 03:26:58;;;;;;;;;;;16.90;89.40;;;;;;5083671;28;19968;-74
2022/05/23 03:27:01;;;;;;;;;;;16.90;89.50;;;;;;5074688;28;19920;-74
2022/05/23 03:29:38;;;;;;;;;;;16.90;89.50;;;;;;5072764;28;19970;-73
2022/05/23 03:32:06;;;;;;;;;;;16.80;89.40;;;;;;5083753;28;20027;-75
2022/05/23 03:34:34;;;;;;;;;;;16.80;89.50;;;;;;5071768;28;20019;-74
2022/05/23 03:37:01;;;;;;;;;;;16.80;89.50;;;;;;5073167;28;19928;-75
2022/05/23 03:39:30;;;;;;;;;;;16.80;89.50;;;;;;5078200;28;19981;-75
2022/05/23 03:41:57;;;;;;;;;;;16.70;89.50;;;;;;5066223;28;20013;-74
2022/05/23 03:44:25;;;;;;;;;;;16.70;89.40;;;;;;5087241;28;19925;-75
2022/05/23 03:46:52;;;;;;;;;;;16.70;89.40;;;;;;5077820;28;19954;-75
2022/05/23 03:49:20;;;;;;;;;;;16.70;89.50;;;;;;5076932;28;20417;-75
2022/05/23 03:51:48;;;;;;;;;;;16.70;89.40;;;;;;5087763;27;19928;-74
2022/05/23 03:54:15;;;;;;;;;;;16.70;89.50;;;;;;5077135;28;20014;-75
2022/05/23 03:56:45;;;;;;;;;;;16.70;89.50;;;;;;5071627;28;19936;-75
2022/05/23 03:59:14;;;;;;;;;;;16.60;89.40;;;;;;5087397;28;19931;-74
2022/05/23 04:01:48;;;;;;;;;;;16.60;89.40;;;;;;5079604;28;19939;-75
2022/05/23 04:04:36;;;;;;;;;;;16.60;89.50;;;;;;5071386;28;19924;-73
2022/05/23 04:07:24;;;;;;;;;;;16.60;89.50;;;;;;5076622;28;19924;-75
2022/05/23 04:10:12;;;;;;;;;;;16.60;89.80;;;;;;5090520;28;20279;-73
2022/05/23 04:12:39;;;;;;;;;;;16.50;89.70;;;;;;5073857;28;19925;-75
2022/05/23 04:15:07;;;;;;;;;;;16.50;89.70;;;;;;5074159;28;19924;-75
2022/05/23 04:17:37;;;;;;;;;;;16.50;89.70;;;;;;5089399;28;19924;-75
2022/05/23 04:20:04;;;;;;;;;;;16.50;89.70;;;;;;5070803;28;19933;-73
2022/05/23 04:22:37;;;;;;;;;;;16.50;89.70;;;;;;5073968;28;19932;-74
2022/05/23 04:25:11;;;;;;;;;;;16.50;89.70;;;;;;5070759;28;20033;-75
2022/05/23 04:27:38;;;;;;;;;;;16.50;89.80;;;;;;5084403;22;20320;-77
2022/05/23 04:30:08;;;;;;;;;;;16.50;89.80;;;;;;5092187;28;20290;-77
2022/05/23 04:35:29;;;;;;;;;;;16.40;90.00;;;;;;5098004;28;19924;-76
2022/05/23 04:37:59;;;;;;;;;;;16.40;90.20;;;;;;5079331;28;19938;-77
2022/05/23 04:40:31;;;;;;;;;;;16.40;90.20;;;;;;5091369;27;19932;-76
2022/05/23 04:43:02;;;;;;;;;;;16.40;90.30;;;;;;5071988;28;19938;-80
2022/05/23 04:45:29;;;;;;;;;;;16.40;90.30;;;;;;5091489;28;19939;-80
2022/05/23 04:51:19;;;;;;;;;;;16.40;90.70;;;;;;5095342;28;19920;-77
2022/05/23 04:53:53;;;;;;;;;;;16.40;90.80;;;;;;5075680;28;19932;-77
2022/05/23 04:56:21;;;;;;;;;;;16.30;90.70;;;;;;5092691;28;19981;-79
2022/05/23 04:58:52;;;;;;;;;;;16.40;90.80;;;;;;5091130;28;19969;-76
2022/05/23 05:01:21;;;;;;;;;;;16.30;90.90;;;;;;5079574;28;20019;-84
2022/05/23 05:03:48;;;;;;;;;;;16.30;90.80;;;;;;5076803;28;19924;-78
2022/05/23 05:06:15;;;;;;;;;;;16.30;90.80;;;;;;5077536;28;19924;-77
2022/05/23 05:08:42;;;;;;;;;;;16.30;90.80;;;;;;5080554;28;19936;-77
2022/05/23 05:11:13;;;;;;;;;;;16.30;91.00;;;;;;5090276;28;19924;-77
2022/05/23 05:13:44;;;;;;;;;;;16.20;91.40;;;;;;5088453;28;19924;-78
2022/05/23 05:16:12;;;;;;;;;;;16.20;91.70;;;;;;5072898;28;20331;-78
2022/05/23 05:18:40;;;;;;;;;;;16.20;91.90;;;;;;5077742;28;19931;-77
2022/05/23 05:21:30;;;;;;;;;;;16.20;91.90;;;;;;5076448;28;19938;-77
2022/05/23 05:24:17;;;;;;;;;;;16.20;92.30;;;;;;5075915;28;20009;-78
2022/05/23 05:27:02;;;;;;;;;;;16.10;92.30;;;;;;5076286;28;20117;-77
2022/05/23 05:29:29;;;;;;;;;;;16.10;92.30;;;;;;5081797;28;19931;-77
2022/05/23 05:31:57;;;;;;;;;;;16.10;92.30;;;;;;5089262;28;20390;-77
2022/05/23 05:34:25;;;;;;;;;;;16.10;92.40;;;;;;5084648;28;20030;-77
2022/05/23 05:36:55;;;;;;;;;;;16.10;92.50;;;;;;5083914;28;19924;-78
2022/05/23 05:39:31;;;;;;;;;;;16.10;92.50;;;;;;5090217;28;19924;-77
2022/05/23 05:42:00;;;;;;;;;;;16.10;92.70;;;;;;5073958;28;19938;-77
2022/05/23 05:44:36;;;;;;;;;;;16.10;92.70;;;;;;5080686;28;19936;-77
2022/05/23 05:47:07;;;;;;;;;;;16.10;92.80;;;;;;5079787;28;20015;-77
2022/05/23 05:49:37;;;;;;;;;;;16.10;92.80;;;;;;5081737;28;20477;-77
2022/05/23 05:52:13;;;;;;;;;;;16.10;92.80;;;;;;5079430;28;19940;-77
2022/05/23 05:55:04;;;;;;;;;;;16.10;92.80;;;;;;5075987;28;19928;-77
2022/05/23 05:57:33;;;;;;;;;;;16.10;92.80;;;;;;5094069;28;19939;-77
2022/05/23 06:00:07;;;;;;;;;;;16.10;92.80;;;;;;5093239;28;19928;-77
2022/05/23 06:02:43;;;;;;;;;;;16.10;92.90;;;;;;5080485;28;19924;-77
2022/05/23 06:05:11;;;;;;;;;;;16.10;92.90;;;;;;5072294;28;19932;-77
2022/05/23 06:13:49;;;;;;;;;;;16.10;92.90;;;;;;5075239;28;19966;-77
2022/05/23 06:16:41;;;;;;;;;;;16.10;92.90;;;;;;5095636;28;19924;-77
2022/05/23 06:19:17;;;;;;;;;;;16.00;92.90;;;;;;5075380;28;19932;-77
2022/05/23 06:22:04;;;;;;;;;;;16.00;93.00;;;;;;5094409;28;19936;-77
2022/05/23 06:24:32;;;;;;;;;;;16.00;92.90;;;;;;5078792;28;19939;-77
2022/05/23 06:27:03;;;;;;;;;;;16.00;92.90;;;;;;5076220;28;19939;-77
2022/05/23 06:29:48;;;;;;;;;;;16.00;92.90;;;;;;5077493;28;19961;-77
2022/05/23 06:32:38;;;;;;;;;;;16.00;93.00;;;;;;5096303;28;19930;-77
2022/05/23 06:35:07;;;;;;;;;;;16.00;93.00;;;;;;5080050;28;19932;-77
2022/05/23 06:37:36;;;;;;;;;;;16.00;93.00;;;;;;5080173;28;19924;-77
2022/05/23 06:40:32;;;;;;;;;;;16.00;93.00;;;;;;5078355;28;20603;-77
2022/05/23 06:43:18;;;;;;;;;;;16.00;93.00;;;;;;5078375;28;19932;-77
2022/05/23 06:46:06;;;;;;;;;;;16.00;93.00;;;;;;5076006;28;19928;-77
2022/05/23 06:49:06;;;;;;;;;;;16.00;93.00;;;;;;5078271;28;20101;-76
2022/05/23 06:51:51;;;;;;;;;;;16.00;93.10;;;;;;5093339;28;19932;-77
2022/05/23 06:54:21;;;;;;;;;;;16.00;93.00;;;;;;5080233;28;19932;-77
2022/05/23 06:57:00;;;;;;;;;;;16.00;93.10;;;;;;5090610;28;20550;-77
2022/05/23 06:59:28;;;;;;;;;;;16.00;93.10;;;;;;5094220;28;19928;-77
2022/05/23 07:01:55;;;;;;;;;;;16.00;93.10;;;;;;5092316;28;20390;-77
2022/05/23 07:04:23;;;;;;;;;;;16.00;93.00;;;;;;5078145;28;19943;-77
2022/05/23 07:12:45;;;;;;;;;;;16.00;93.50;;;;;;5090396;28;19939;-77
2022/05/23 07:15:13;;;;;;;;;;;16.00;93.70;;;;;;5077791;28;19931;-77
2022/05/23 07:17:46;;;;;;;;;;;16.00;93.70;;;;;;5082659;28;19932;-77
2022/05/23 07:20:20;;;;;;;;;;;16.00;93.70;;;;;;5082332;28;19930;-77
2022/05/23 07:23:05;;;;;;;;;;;16.00;93.70;;;;;;5081120;28;20313;-77
2022/05/23 07:25:39;;;;;;;;;;;16.00;93.70;;;;;;5075570;28;19974;-77
2022/05/23 07:28:06;;;;;;;;;;;16.10;93.90;;;;;;5076531;28;19928;-77
2022/05/23 07:30:33;;;;;;;;;;;16.10;94.00;;;;;;5083325;28;19932;-77
2022/05/23 07:33:00;;;;;;;;;;;16.10;94.00;;;;;;5095837;28;19939;-77
2022/05/23 07:36:07;;;;;;;;;;;16.10;94.10;;;;;;5063436;28;19931;-77
2022/05/23 07:38:37;;;;;;;;;;;16.10;94.30;;;;;;5047725;28;19928;-77
2022/05/23 07:41:08;;;;;;;;;;;16.10;94.50;;;;;;5061465;28;19935;-77
2022/05/23 07:43:41;;;;;;;;;;;16.10;94.90;;;;;;5085464;28;19932;-77
2022/05/23 07:46:09;;;;;;;;;;;16.10;95.20;;;;;;5080459;28;20097;-77
2022/05/23 07:48:39;;;;;;;;;;;16.20;95.80;;;;;;5080625;28;19967;-77
2022/05/23 07:51:08;;;;;;;;;;;16.20;95.80;;;;;;5081271;28;20466;-77
2022/05/23 08:01:54;;;;;;;;;;;16.20;96.30;;;;;;5080334;28;19974;-77
2022/05/23 08:04:24;;;;;;;;;;;16.30;96.80;;;;;;5082238;28;19989;-77
2022/05/23 08:06:54;;;;;;;;;;;16.30;96.30;;;;;;5094976;28;20084;-77
2022/05/23 08:09:23;;;;;;;;;;;16.30;96.50;;;;;;5074485;28;20488;-77
2022/05/23 08:12:06;;;;;;;;;;;16.30;96.60;;;;;;5076117;28;19977;-77
2022/05/23 08:14:35;;;;;;;;;;;16.30;96.30;;;;;;5099978;28;20019;-77
2022/05/23 08:17:08;;;;;;;;;;;16.30;96.20;;;;;;5086293;28;20439;-77
2022/05/23 08:19:40;;;;;;;;;;;16.40;96.60;;;;;;5080789;28;20390;-77
2022/05/23 08:22:17;;;;;;;;;;;16.40;96.30;;;;;;5077410;28;19960;-77
2022/05/23 08:24:52;;;;;;;;;;;16.40;96.60;;;;;;5083629;28;19931;-77
2022/05/23 08:27:20;;;;;;;;;;;16.40;96.40;;;;;;5079776;28;19939;-77
2022/05/23 08:29:52;;;;;;;;;;;16.40;96.10;;;;;;5081460;28;19924;-77
2022/05/23 08:32:21;;;;;;;;;;;16.40;96.00;;;;;;5097489;28;20254;-77
2022/05/23 08:34:59;;;;;;;;;;;16.40;96.10;;;;;;5080526;28;19928;-77
2022/05/23 08:37:27;;;;;;;;;;;16.40;95.80;;;;;;5075112;28;20244;-77
2022/05/23 08:39:54;;;;;;;;;;;16.50;95.90;;;;;;5082017;28;19924;-77
2022/05/23 08:42:31;;;;;;;;;;;16.40;95.90;;;;;;5091850;28;19931;-77
2022/05/23 08:45:21;;;;;;;;;;;16.50;95.90;;;;;;5078352;28;19924;-78
2022/05/23 08:47:55;;;;;;;;;;;16.50;96.10;;;;;;5079795;28;19956;-77
2022/05/23 08:50:25;;;;;;;;;;;16.50;96.20;;;;;;5098310;28;20023;-77
2022/05/23 08:52:58;;;;;;;;;;;16.50;96.30;;;;;;5079300;28;19959;-78
2022/05/23 08:55:42;;;;;;;;;;;16.60;96.20;;;;;;5075786;28;19925;-77
2022/05/23 08:58:25;;;;;;;;;;;16.60;96.30;;;;;;5081458;28;19955;-78
2022/05/23 09:00:54;;;;;;;;;;;16.60;96.50;;;;;;5075445;28;20032;-77
2022/05/23 09:03:22;;;;;;;;;;;16.60;96.60;;;;;;5071585;28;20022;-77
2022/05/23 09:05:52;;;;;;;;;;;16.70;96.60;;;;;;5077226;28;19924;-77
2022/05/23 09:08:28;;;;;;;;;;;16.70;96.70;;;;;;5080170;28;19924;-77
2022/05/23 09:10:58;;;;;;;;;;;16.70;96.70;;;;;;5075610;28;19932;-77
2022/05/23 09:13:27;;;;;;;;;;;16.70;96.80;;;;;;5079673;28;19935;-77
2022/05/23 09:16:03;;;;;;;;;;;16.80;97.20;;;;;;5083088;28;20414;-77
2022/05/23 09:18:37;;;;;;;;;;;16.80;97.20;;;;;;5078553;28;19950;-77
2022/05/23 09:21:05;;;;;;;;;;;16.80;97.00;;;;;;5074480;28;19931;-77
2022/05/23 09:23:39;;;;;;;;;;;16.90;97.20;;;;;;5073178;28;19932;-77
2022/05/23 09:26:11;;;;;;;;;;;16.90;97.20;;;;;;5080815;28;19959;-77
2022/05/23 09:28:39;;;;;;;;;;;16.90;97.40;;;;;;5073597;28;19924;-77
2022/05/23 09:31:11;;;;;;;;;;;16.90;97.60;;;;;;5072692;28;19929;-77
2022/05/23 09:33:45;;;;;;;;;;;17.00;97.40;;;;;;5075581;28;19975;-75
2022/05/23 09:36:17;;;;;;;;;;;17.00;97.70;;;;;;5074566;28;20361;-75
2022/05/23 09:38:54;;;;;;;;;;;17.00;97.50;;;;;;5078270;28;19931;-77
2022/05/23 09:49:55;;;;;;;;;;;17.20;97.80;;;;;;5081368;28;19935;-77
2022/05/23 09:52:27;;;;;;;;;;;17.20;98.00;;;;;;5074375;28;20637;-77
2022/05/23 09:54:57;;;;;;;;;;;17.30;98.00;;;;;;5075916;28;20456;-78
2022/05/23 09:57:25;;;;;;;;;;;17.30;98.10;;;;;;5094741;28;20015;-78
2022/05/23 09:59:57;;;;;;;;;;;17.30;97.90;;;;;;5079739;28;19974;-77
2022/05/23 10:02:32;;;;;;;;;;;17.30;97.80;;;;;;5079645;28;20428;-78
2022/05/23 10:04:59;;;;;;;;;;;17.40;97.90;;;;;;5094510;28;20394;-77
2022/05/23 10:07:29;;;;;;;;;;;17.40;98.00;;;;;;5077801;28;19934;-77
2022/05/23 10:09:58;;;;;;;;;;;17.50;98.20;;;;;;5080152;28;20368;-76
2022/05/23 10:13:11;;;;;;;;;;;17.50;98.30;;;;;;5072206;28;20254;-75
2022/05/23 10:15:43;;;;;;;;;;;17.60;98.30;;;;;;5077588;28;19971;-75
2022/05/23 10:18:12;;;;;;;;;;;17.60;98.40;;;;;;5078515;28;19960;-78
2022/05/23 10:20:42;;;;;;;;;;;17.70;98.40;;;;;;5080701;28;20612;-77
2022/05/23 10:23:14;;;;;;;;;;;17.70;98.30;;;;;;5079498;28;19931;-77
2022/05/23 10:25:45;;;;;;;;;;;17.70;98.20;;;;;;5084002;28;19928;-78
2022/05/23 10:28:14;;;;;;;;;;;17.70;98.30;;;;;;5074687;28;19924;-78
2022/05/23 10:30:44;;;;;;;;;;;17.80;98.20;;;;;;5069836;22;20395;-78
2022/05/23 10:33:13;;;;;;;;;;;17.90;98.30;;;;;;5042883;28;20318;-78
2022/05/23 10:35:43;;;;;;;;;;;17.90;98.40;;;;;;5058425;28;19932;-77
2022/05/23 10:43:53;;;;;;;;;;;18.00;98.40;;;;;;5057467;28;19951;-77
2022/05/23 10:46:22;;;;;;;;;;;18.00;98.40;;;;;;5049474;28;20464;-75
2022/05/23 10:48:55;;;;;;;;;;;18.10;98.50;;;;;;5070729;28;19925;-77
2022/05/23 10:51:29;;;;;;;;;;;18.10;98.50;;;;;;5054913;28;19924;-77
2022/05/23 10:54:04;;;;;;;;;;;18.20;98.50;;;;;;5056237;28;20291;-76
2022/05/23 10:56:41;;;;;;;;;;;18.20;98.50;;;;;;5053951;28;19925;-77
2022/05/23 10:59:09;;;;;;;;;;;18.20;98.50;;;;;;5058121;28;19925;-77
2022/05/23 11:01:43;;;;;;;;;;;18.30;98.50;;;;;;5063453;28;22294;-77
2022/05/23 11:04:17;;;;;;;;;;;18.30;98.60;;;;;;5074015;28;19933;-76
2022/05/23 11:06:58;;;;;;;;;;;18.40;98.80;;;;;;5093053;28;19932;-77
2022/05/23 11:09:33;;;;;;;;;;;18.50;98.90;;;;;;5055761;28;20027;-77
2022/05/23 11:12:05;;;;;;;;;;;18.50;98.90;;;;;;5053547;28;20022;-78
2022/05/23 11:14:35;;;;;;;;;;;18.60;99.20;;;;;;5064142;28;19932;-77
2022/05/23 11:17:07;;;;;;;;;;;18.60;98.90;;;;;;5057571;28;19932;-77
2022/05/23 11:19:41;;;;;;;;;;;18.70;98.90;;;;;;5060361;28;21022;-77
2022/05/23 11:22:10;;;;;;;;;;;18.70;98.90;;;;;;5061127;28;19925;-78
2022/05/23 11:24:40;;;;;;;;;;;18.70;98.90;;;;;;5059021;28;19929;-77
2022/05/23 11:35:42;;;;;;;;;;;18.90;99.20;;;;;;5053291;28;20010;-78
2022/05/23 11:38:09;;;;;;;;;;;18.90;99.10;;;;;;5056676;28;20019;-77
2022/05/23 11:41:06;;;;;;;;;;;19.00;99.10;;;;;;5057200;28;19932;-83
2022/05/23 11:43:35;;;;;;;;;;;19.10;99.50;;;;;;4977677;28;20400;-78
2022/05/23 11:46:03;;;;;;;;;;;19.10;99.20;;;;;;5041420;28;19943;-82
2022/05/23 11:48:35;;;;;;;;;;;19.10;99.40;;;;;;5053778;28;20023;-82
2022/05/23 11:51:10;;;;;;;;;;;19.10;99.50;;;;;;5063075;28;19939;-85
2022/05/23 11:53:39;;;;;;;;;;;19.20;99.90;;;;;;5054405;28;20002;-79
2022/05/23 11:56:07;;;;;;;;;;;19.20;99.90;;;;;;5074971;28;19978;-84
2022/05/23 11:58:47;;;;;;;;;;;19.30;99.90;;;;;;5061749;28;20062;-78
2022/05/23 12:01:19;;;;;;;;;;;19.20;99.90;;;;;;5057783;28;19924;-78
2022/05/23 12:04:01;;;;;;;;;;;19.20;99.90;;;;;;5084675;28;19932;-78
2022/05/23 12:06:36;;;;;;;;;;;19.20;99.90;;;;;;5041138;28;19931;-79
2022/05/23 12:09:04;;;;;;;;;;;19.20;99.90;;;;;;5055878;28;20512;-79
2022/05/23 12:11:32;;;;;;;;;;;19.20;99.90;;;;;;5057826;28;20394;-78
2022/05/23 12:14:14;;;;;;;;;;;19.20;99.90;;;;;;5062908;28;19928;-78
2022/05/23 12:16:42;;;;;;;;;;;19.20;99.50;;;;;;5066406;28;19928;-78
2022/05/23 12:19:27;;;;;;;;;;;19.10;99.40;;;;;;5061058;28;20352;-79
2022/05/23 12:21:54;;;;;;;;;;;19.10;99.50;;;;;;5055555;28;19925;-78
2022/05/23 12:24:29;;;;;;;;;;;19.10;99.60;;;;;;5059268;28;19925;-83
2022/05/23 12:26:57;;;;;;;;;;;19.10;99.70;;;;;;5060953;28;19935;-79
2022/05/23 12:29:30;;;;;;;;;;;19.10;99.70;;;;;;5058606;28;20028;-80
2022/05/23 12:32:27;;;;;;;;;;;19.10;99.40;;;;;;5057097;28;19947;-80
2022/05/23 12:34:56;;;;;;;;;;;19.10;99.60;;;;;;5005232;28;19929;-80
2022/05/23 12:37:30;;;;;;;;;;;19.10;99.60;;;;;;4995622;28;19925;-80
2022/05/23 12:40:07;;;;;;;;;;;19.10;99.40;;;;;;5007516;28;19957;-80
2022/05/23 12:42:37;;;;;;;;;;;19.10;99.00;;;;;;5016321;28;19925;-80
2022/05/23 12:45:31;;;;;;;;;;;19.10;99.40;;;;;;5057976;28;20601;-80
2022/05/23 12:48:07;;;;;;;;;;;19.10;99.40;;;;;;5012580;28;19924;-80
2022/05/23 12:50:43;;;;;;;;;;;19.10;99.40;;;;;;5066519;28;20639;-79
2022/05/23 12:53:17;;;;;;;;;;;19.10;99.40;;;;;;5066209;28;19924;-79
2022/05/23 12:55:51;;;;;;;;;;;19.10;99.40;;;;;;5064033;28;20381;-79
2022/05/23 12:58:36;;;;;;;;;;;19.10;99.40;;;;;;5067512;28;19929;-79
2022/05/23 13:01:04;;;;;;;;;;;19.10;99.40;;;;;;5058024;28;20390;-79
2022/05/23 13:03:37;;;;;;;;;;;19.10;99.30;;;;;;5091285;28;19931;-79
2022/05/23 13:06:09;;;;;;;;;;;19.10;99.20;;;;;;5068578;28;19929;-79
2022/05/23 13:08:42;;;;;;;;;;;19.10;99.20;;;;;;5067662;28;19974;-79
2022/05/23 13:11:10;;;;;;;;;;;19.10;99.20;;;;;;5063789;28;20373;-78
2022/05/23 13:13:39;;;;;;;;;;;19.10;99.20;;;;;;5069934;28;19932;-79
2022/05/23 13:16:16;;;;;;;;;;;19.10;99.30;;;;;;5053369;28;19931;-79
2022/05/23 13:24:48;;;;;;;;;;;19.20;99.40;;;;;;5057417;28;19970;-79
2022/05/23 13:27:01;;;;;;;;;;;19.20;99.50;;;;;;5050369;28;20367;-78
2022/05/23 13:29:28;;;;;;;;;;;19.30;99.70;;;;;;5074497;28;20015;-78
2022/05/23 13:31:58;;;;;;;;;;;19.30;99.90;;;;;;5055881;28;20546;-78
2022/05/23 13:34:30;;;;;;;;;;;19.30;99.90;;;;;;5057233;28;19932;-78
2022/05/23 13:36:57;;;;;;;;;;;19.40;99.90;;;;;;5052013;28;19925;-78
2022/05/23 13:39:24;;;;;;;;;;;19.40;99.90;;;;;;5056942;28;20398;-83
2022/05/23 13:41:51;;;;;;;;;;;19.40;99.90;;;;;;5055137;28;19925;-78
2022/05/23 13:44:21;;;;;;;;;;;19.40;99.90;;;;;;5054167;28;20263;-78
2022/05/23 13:46:49;;;;;;;;;;;19.50;99.90;;;;;;5101799;28;19928;-77
2022/05/23 13:49:20;;;;;;;;;;;19.50;99.90;;;;;;5063235;28;19951;-78
2022/05/23 13:51:51;;;;;;;;;;;19.60;99.90;;;;;;5038486;28;19951;-79
2022/05/23 13:54:21;;;;;;;;;;;19.60;99.90;;;;;;5022324;28;19932;-79
2022/05/23 13:56:49;;;;;;;;;;;19.70;99.90;;;;;;5041753;28;19925;-80
2022/05/23 13:59:19;;;;;;;;;;;19.70;99.90;;;;;;5046004;28;19952;-79
2022/05/23 14:01:48;;;;;;;;;;;19.70;99.90;;;;;;5054189;28;20028;-80
2022/05/23 14:04:16;;;;;;;;;;;19.80;99.90;;;;;;5065994;28;20421;-80
2022/05/23 14:06:45;;;;;;;;;;;19.90;99.90;;;;;;5047473;28;19999;-80
2022/05/23 14:09:13;;;;;;;;;;;19.90;99.90;;;;;;5057963;28;19925;-81
2022/05/23 14:11:46;;;;;;;;;;;19.90;99.90;;;;;;5061967;28;19978;-80
2022/05/23 14:14:14;;;;;;;;;;;20.00;99.90;;;;;;5053549;28;19928;-79
2022/05/23 14:16:42;;;;;;;;;;;20.00;99.90;;;;;;5058384;28;20003;-80
2022/05/23 14:19:10;;;;;;;;;;;;;;;;;;5059366;28;19985;-80
2022/05/23 14:21:38;;;;;;;;;;;20.10;99.90;;;;;;5050543;28;20019;-80
2022/05/23 14:24:15;;;;;;;;;;;20.10;99.90;;;;;;5059598;28;19925;-81
2022/05/23 14:26:42;;;;;;;;;;;20.10;99.90;;;;;;5055595;28;19925;-81
2022/05/23 14:29:12;;;;;;;;;;;20.20;99.90;;;;;;5057009;28;20394;-83
2022/05/23 14:31:44;;;;;;;;;;;20.20;99.90;;;;;;5055558;28;19939;-83
2022/05/23 14:34:15;;;;;;;;;;;20.30;99.90;;;;;;5091983;27;19925;-81
2022/05/23 14:36:50;;;;;;;;;;;20.30;99.90;;;;;;5057081;28;19932;-81
2022/05/23 14:39:21;;;;;;;;;;;20.40;99.90;;;;;;5061591;28;20301;-82
2022/05/23 14:41:49;;;;;;;;;;;20.40;99.90;;;;;;5054878;28;19932;-82
2022/05/23 14:44:28;;;;;;;;;;;20.50;99.90;;;;;;5063383;28;19991;-81
2022/05/23 14:46:59;;;;;;;;;;;20.50;99.90;;;;;;5058460;28;19937;-81
2022/05/23 14:49:29;;;;;;;;;;;20.50;99.90;;;;;;5057049;28;19935;-81
2022/05/23 14:51:56;;;;;;;;;;;20.60;99.90;;;;;;5057752;28;19924;-81
2022/05/23 14:57:11;;;;;;;;;;;20.70;99.90;;;;;;5063495;28;19970;-81
2022/05/23 15:02:27;;;;;;;;;;;20.80;99.90;;;;;;5055802;28;19933;-83
2022/05/23 15:04:55;;;;;;;;;;;20.90;99.90;;;;;;5058118;28;19944;-80
2022/05/23 15:07:23;;;;;;;;;;;20.90;99.90;;;;;;5057083;28;20470;-84
2022/05/23 15:09:51;;;;;;;;;;;21.00;99.90;;;;;;5073379;28;19928;-81
2022/05/23 15:12:20;;;;;;;;;;;20.90;99.90;;;;;;5065777;28;19931;-82
2022/05/23 15:14:47;;;;;;;;;;;21.00;99.90;;;;;;5073646;28;19928;-80
2022/05/23 15:17:17;;;;;;;;;;;21.00;99.90;;;;;;5060569;28;19928;-81
2022/05/23 15:19:44;;;;;;;;;;;21.10;99.90;;;;;;5068400;28;20357;-78
2022/05/23 15:22:13;;;;;;;;;;;21.20;99.90;;;;;;5054290;28;19929;-77
2022/05/23 15:24:40;;;;;;;;;;;21.20;99.90;;;;;;5063936;28;19955;-77
2022/05/23 15:27:13;;;;;;;;;;;21.20;99.70;;;;;;5046987;28;19940;-76
2022/05/23 15:29:40;;;;;;;;;;;21.20;99.80;;;;;;5051733;28;20375;-77
2022/05/23 15:32:08;;;;;;;;;;;21.30;99.90;;;;;;5057349;28;19994;-78
2022/05/23 15:34:36;;;;;;;;;;;21.30;99.90;;;;;;5059453;28;19925;-77
2022/05/23 15:37:03;;;;;;;;;;;21.30;99.90;;;;;;5045675;28;21404;-80
2022/05/23 15:39:29;;;;;;;;;;;21.40;99.90;;;;;;5066476;28;20031;-79
2022/05/23 15:41:57;;;;;;;;;;;21.40;99.90;;;;;;5062716;28;19935;-80
2022/05/23 15:44:30;;;;;;;;;;;21.40;99.80;;;;;;5061270;28;19947;-80
2022/05/23 15:46:58;;;;;;;;;;;21.40;99.80;;;;;;5057318;28;19929;-79
2022/05/23 15:49:26;;;;;;;;;;;21.50;99.70;;;;;;5065698;28;19925;-79
2022/05/23 15:51:53;;;;;;;;;;;21.50;99.60;;;;;;5055154;28;19936;-80
2022/05/23 15:54:20;;;;;;;;;;;21.50;99.50;;;;;;5061338;28;19931;-80
2022/05/23 15:56:48;;;;;;;;;;;21.50;99.40;;;;;;5059432;28;19964;-77
2022/05/23 15:59:16;;;;;;;;;;;21.50;99.30;;;;;;5057015;28;20374;-78